createdAt,value
2023-05-21T00:01:47.321Z,16.549999
2023-05-21T00:05:14.608Z,16.559999
2023-05-21T00:08:37.674Z,16.59
2023-05-21T00:12:02.883Z,16.59
2023-05-21T00:15:28.067Z,16.559999
2023-05-21T00:18:53.316Z,16.530001
2023-05-21T00:22:18.478Z,16.49
2023-05-21T00:25:43.648Z,16.48
2023-05-21T00:29:08.848Z,16.459999
2023-05-21T00:32:34.083Z,16.450001
2023-05-21T00:35:59.269Z,16.41
2023-05-21T00:39:24.425Z,16.33
2023-05-21T00:42:49.622Z,16.26
2023-05-21T00:46:14.868Z,16.200001
2023-05-21T00:49:40.091Z,16.219999
2023-05-21T00:53:05.291Z,16.26
2023-05-21T00:56:30.503Z,16.27
2023-05-21T00:59:55.709Z,16.26
2023-05-21T01:03:21.165Z,16.27
2023-05-21T01:06:46.081Z,16.309999
2023-05-21T01:10:11.331Z,16.32
2023-05-21T01:13:36.527Z,16.34
2023-05-21T01:17:01.719Z,16.32
2023-05-21T01:20:26.884Z,16.290001
2023-05-21T01:23:52.089Z,16.219999
2023-05-21T01:27:17.346Z,16.17
2023-05-21T01:30:42.509Z,16.15
2023-05-21T01:34:07.756Z,16.120001
2023-05-21T01:37:34.948Z,16.09
2023-05-21T01:41:00.154Z,16.059999
2023-05-21T01:44:25.398Z,16.059999
2023-05-21T01:47:50.596Z,16.07
2023-05-21T01:51:15.792Z,16.09
2023-05-21T01:54:41.049Z,16.08
2023-05-21T01:58:06.237Z,16.09
2023-05-21T02:01:32.280Z,16.08
2023-05-21T02:04:57.415Z,16.059999
2023-05-21T02:08:22.627Z,16.040001
2023-05-21T02:11:47.818Z,15.99
2023-05-21T02:15:13.010Z,15.98
2023-05-21T02:18:38.220Z,16
2023-05-21T02:22:03.402Z,16.049999
2023-05-21T02:25:28.606Z,16.1
2023-05-21T02:28:53.797Z,16.139999
2023-05-21T02:32:18.984Z,16.17
2023-05-21T02:35:44.218Z,16.209999
2023-05-21T02:39:09.411Z,16.26
2023-05-21T02:42:34.588Z,16.280001
2023-05-21T02:45:59.778Z,16.309999
2023-05-21T02:49:24.952Z,16.34
2023-05-21T02:52:50.182Z,16.379999
2023-05-21T02:56:15.369Z,16.41
2023-05-21T02:59:40.579Z,16.440001
2023-05-21T03:03:05.897Z,16.450001
2023-05-21T03:06:30.975Z,16.440001
2023-05-21T03:09:56.203Z,16.43
2023-05-21T03:13:21.390Z,16.41
2023-05-21T03:16:46.588Z,16.41
2023-05-21T03:20:11.780Z,16.41
2023-05-21T03:23:36.937Z,16.389999
2023-05-21T03:27:02.197Z,16.34
2023-05-21T03:30:27.343Z,16.299999
2023-05-21T03:33:52.541Z,16.219999
2023-05-21T03:37:17.736Z,16.18
2023-05-21T03:40:44.392Z,16.139999
2023-05-21T03:44:09.628Z,16.1
2023-05-21T03:47:34.784Z,16.07
2023-05-21T03:51:00.002Z,16.049999
2023-05-21T03:54:25.184Z,16.049999
2023-05-21T03:57:50.376Z,16.040001
2023-05-21T04:01:15.593Z,16.059999
2023-05-21T04:04:40.797Z,16.030001
2023-05-21T04:08:05.992Z,16.040001
2023-05-21T04:11:31.166Z,16.049999
2023-05-21T04:14:56.378Z,16.049999
2023-05-21T04:18:21.629Z,16.07
2023-05-21T04:21:46.811Z,16.09
2023-05-21T04:25:12.023Z,16.1
2023-05-21T04:28:37.201Z,16.1
2023-05-21T04:32:02.401Z,16.09
2023-05-21T04:35:27.628Z,16.120001
2023-05-21T04:38:52.814Z,16.190001
2023-05-21T04:42:18.015Z,16.34
2023-05-21T04:45:43.243Z,16.5
2023-05-21T04:49:08.433Z,16.700001
2023-05-21T04:52:33.658Z,16.969999
2023-05-21T04:55:58.826Z,17.290001
2023-05-21T04:59:24.004Z,17.610001
2023-05-21T05:02:49.258Z,17.92
2023-05-21T05:06:14.406Z,18.200001
2023-05-21T05:09:39.615Z,18.459999
2023-05-21T05:13:04.789Z,18.66
2023-05-21T05:16:30.024Z,18.83
2023-05-21T05:19:55.218Z,18.98
2023-05-21T05:23:20.421Z,19.16
2023-05-21T05:26:45.729Z,19.379999
2023-05-21T05:30:10.913Z,19.58
2023-05-21T05:33:36.120Z,19.709999
2023-05-21T05:37:01.331Z,19.84
2023-05-21T05:40:26.534Z,19.9
2023-05-21T05:43:51.963Z,20
2023-05-21T05:47:17.021Z,19.98
2023-05-21T05:50:42.217Z,19.940001
2023-05-21T05:54:07.391Z,19.93
2023-05-21T05:57:32.633Z,19.92
2023-05-21T06:00:57.847Z,19.950001
2023-05-21T06:04:23.021Z,20.1
2023-05-21T06:07:48.160Z,20.32
2023-05-21T06:11:13.347Z,20.559999
2023-05-21T06:14:38.547Z,20.75
2023-05-21T06:18:03.787Z,20.950001
2023-05-21T06:21:28.983Z,21.17
2023-05-21T06:24:54.175Z,21.41
2023-05-21T06:28:19.424Z,21.42
2023-05-21T06:31:44.606Z,21.379999
2023-05-21T06:35:09.835Z,21.360001
2023-05-21T06:38:35.015Z,21.360001
2023-05-21T06:42:00.210Z,21.360001
2023-05-21T06:45:25.379Z,21.41
2023-05-21T06:48:50.589Z,21.49
2023-05-21T06:52:15.840Z,21.540001
2023-05-21T06:55:41.048Z,21.540001
2023-05-21T06:59:06.257Z,21.5
2023-05-21T07:02:31.520Z,21.49
2023-05-21T07:05:56.652Z,21.5
2023-05-21T07:09:21.899Z,21.549999
2023-05-21T07:12:47.072Z,21.620001
2023-05-21T07:16:12.291Z,21.75
2023-05-21T07:19:37.483Z,21.9
2023-05-21T07:23:02.705Z,22.110001
2023-05-21T07:26:28.700Z,22.34
2023-05-21T07:29:53.832Z,22.540001
2023-05-21T07:33:19.053Z,22.75
2023-05-21T07:36:44.227Z,22.969999
2023-05-21T07:40:09.452Z,23.1
2023-05-21T07:43:34.756Z,23.17
2023-05-21T07:46:59.854Z,23.24
2023-05-21T07:50:25.167Z,23.33
2023-05-21T07:53:50.282Z,23.450001
2023-05-21T07:57:15.488Z,23.52
2023-05-21T08:00:40.746Z,23.57
2023-05-21T08:04:06.354Z,23.610001
2023-05-21T08:07:31.141Z,23.68
2023-05-21T08:10:56.381Z,23.700001
2023-05-21T08:14:21.574Z,23.690001
2023-05-21T08:17:46.957Z,23.639999
2023-05-21T08:21:11.986Z,23.59
2023-05-21T08:24:37.741Z,23.49
2023-05-21T08:28:02.937Z,23.43
2023-05-21T08:31:28.227Z,23.35
2023-05-21T08:34:53.424Z,23.309999
2023-05-21T08:38:18.631Z,23.299999
2023-05-21T08:41:43.805Z,23.370001
2023-05-21T08:45:09.007Z,23.459999
2023-05-21T08:48:34.191Z,23.6
2023-05-21T08:51:59.450Z,23.76
2023-05-21T08:55:24.663Z,23.889999
2023-05-21T08:58:49.871Z,24.01
2023-05-21T09:02:15.153Z,24.15
2023-05-21T09:05:40.375Z,24.23
2023-05-21T09:09:05.609Z,24.26
2023-05-21T09:12:30.784Z,24.32
2023-05-21T09:15:55.985Z,24.42
2023-05-21T09:19:21.222Z,24.549999
2023-05-21T09:22:46.405Z,24.620001
2023-05-21T09:26:11.625Z,24.709999
2023-05-21T09:29:36.796Z,24.85
2023-05-21T09:33:02.090Z,24.99
2023-05-21T09:36:27.244Z,25.15
2023-05-21T09:39:52.467Z,25.33
2023-05-21T09:43:17.699Z,25.5
2023-05-21T09:46:42.952Z,25.67
2023-05-21T09:50:08.124Z,25.9
2023-05-21T09:53:33.326Z,26.030001
2023-05-21T09:56:58.509Z,26.139999
2023-05-21T10:00:23.748Z,26.26
2023-05-21T10:03:50.635Z,26.360001
2023-05-21T10:07:14.139Z,26.41
2023-05-21T10:10:39.348Z,26.5
2023-05-21T10:14:04.561Z,26.59
2023-05-21T10:17:29.796Z,26.67
2023-05-21T10:20:54.976Z,26.77
2023-05-21T10:24:20.172Z,26.790001
2023-05-21T10:27:45.367Z,26.92
2023-05-21T10:31:10.602Z,27.040001
2023-05-21T10:34:35.805Z,27.120001
2023-05-21T10:38:01.019Z,27.120001
2023-05-21T10:41:26.268Z,27.16
2023-05-21T10:44:51.466Z,27.200001
2023-05-21T10:48:16.745Z,27.200001
2023-05-21T10:51:41.877Z,27.17
2023-05-21T10:55:07.068Z,27.26
2023-05-21T10:58:32.255Z,27.309999
2023-05-21T11:01:57.482Z,27.32
2023-05-21T11:05:22.714Z,27.4
2023-05-21T11:08:47.948Z,27.48
2023-05-21T11:12:13.113Z,27.59
2023-05-21T11:15:38.342Z,27.76
2023-05-21T11:19:03.595Z,27.879999
2023-05-21T11:22:28.757Z,27.959999
2023-05-21T11:25:53.962Z,28
2023-05-21T11:29:19.106Z,27.9
2023-05-21T11:32:44.390Z,27.85
2023-05-21T11:36:09.534Z,27.77
2023-05-21T11:39:34.742Z,27.780001
2023-05-21T11:43:00.087Z,27.709999
2023-05-21T11:46:25.218Z,27.629999
2023-05-21T11:49:50.369Z,27.68
2023-05-21T11:53:15.575Z,27.76
2023-05-21T11:56:40.803Z,27.74
2023-05-21T12:00:06.035Z,27.620001
2023-05-21T12:03:31.304Z,27.540001
2023-05-21T12:06:56.589Z,27.450001
2023-05-21T12:10:21.863Z,27.450001
2023-05-21T12:13:47.150Z,27.42
2023-05-21T12:17:12.381Z,27.42
2023-05-21T12:20:37.743Z,27.450001
2023-05-21T12:24:02.783Z,27.540001
2023-05-21T12:27:28.022Z,27.59
2023-05-21T12:30:53.237Z,27.58
2023-05-21T12:34:18.484Z,27.58
2023-05-21T12:37:43.682Z,27.530001
2023-05-21T12:41:08.894Z,27.49
2023-05-21T12:44:36.082Z,27.5
2023-05-21T12:47:59.321Z,27.49
2023-05-21T12:51:24.559Z,27.48
2023-05-21T12:54:49.754Z,27.51
2023-05-21T12:58:14.975Z,27.51
2023-05-21T13:01:40.274Z,27.540001
2023-05-21T13:05:05.489Z,27.59
2023-05-21T13:08:30.725Z,27.610001
2023-05-21T13:11:55.936Z,27.690001
2023-05-21T13:15:21.180Z,27.74
2023-05-21T13:18:46.450Z,27.77
2023-05-21T13:22:11.678Z,27.68
2023-05-21T13:25:36.936Z,27.549999
2023-05-21T13:29:02.152Z,27.51
2023-05-21T13:32:27.448Z,27.4
2023-05-21T13:35:52.713Z,27.33
2023-05-21T13:39:17.969Z,27.200001
2023-05-21T13:42:43.245Z,27.17
2023-05-21T13:46:08.465Z,27.18
2023-05-21T13:49:33.764Z,27.209999
2023-05-21T13:52:58.971Z,27.120001
2023-05-21T13:56:24.212Z,27.01
2023-05-21T13:59:49.514Z,26.99
2023-05-21T14:03:14.818Z,26.98
2023-05-21T14:06:40.018Z,27
2023-05-21T14:10:05.296Z,27.030001
2023-05-21T14:13:30.487Z,26.98
2023-05-21T14:16:55.859Z,26.950001
2023-05-21T14:20:20.983Z,26.969999
2023-05-21T14:23:46.230Z,26.92
2023-05-21T14:27:13.228Z,26.93
2023-05-21T14:30:36.739Z,26.940001
2023-05-21T14:34:02.018Z,26.98
2023-05-21T14:37:27.236Z,27
2023-05-21T14:40:52.511Z,26.959999
2023-05-21T14:44:17.735Z,26.93
2023-05-21T14:47:42.957Z,26.91
2023-05-21T14:51:08.204Z,26.91
2023-05-21T14:54:33.417Z,26.85
2023-05-21T14:57:58.674Z,26.76
2023-05-21T15:01:23.989Z,26.639999
2023-05-21T15:04:49.221Z,26.6
2023-05-21T15:08:14.475Z,26.620001
2023-05-21T15:44:51.851Z,23.93
2023-05-21T15:48:17.040Z,24.870001
2023-05-21T15:51:42.333Z,25.07
2023-05-21T15:55:07.572Z,25.280001
2023-05-21T15:58:32.823Z,25.43
2023-05-21T16:01:58.046Z,25.57
2023-05-21T16:05:23.262Z,25.65
2023-05-21T16:08:48.540Z,25.68
2023-05-21T16:12:13.748Z,25.709999
2023-05-21T16:15:39.081Z,25.719999
2023-05-21T16:19:04.254Z,25.73
2023-05-21T16:22:29.444Z,25.73
2023-05-21T16:25:54.653Z,25.73
2023-05-21T16:29:19.871Z,25.700001
2023-05-21T16:32:45.089Z,25.629999
2023-05-21T16:36:10.340Z,25.540001
2023-05-21T16:39:35.545Z,25.42
2023-05-21T16:43:02.110Z,25.290001
2023-05-21T16:46:26.035Z,25.139999
2023-05-21T16:49:51.233Z,25.030001
2023-05-21T16:53:16.607Z,24.93
2023-05-21T16:56:41.723Z,24.84
2023-05-21T17:00:06.958Z,24.75
2023-05-21T17:03:32.272Z,24.66
2023-05-21T17:06:57.371Z,24.530001
2023-05-21T17:10:22.716Z,24.389999
2023-05-21T17:13:47.798Z,24.290001
2023-05-21T17:17:12.982Z,24.190001
2023-05-21T17:20:38.201Z,24.110001
2023-05-21T17:24:03.574Z,24.049999
2023-05-21T17:27:28.816Z,23.99
2023-05-21T17:30:54.023Z,23.85
2023-05-21T17:34:19.318Z,23.73
2023-05-21T17:37:44.526Z,23.610001
2023-05-21T17:41:09.792Z,23.49
2023-05-21T17:44:35.030Z,23.379999
2023-05-21T17:48:00.754Z,23.32
2023-05-21T17:51:26.255Z,23.280001
2023-05-21T17:54:51.488Z,23.24
2023-05-21T17:58:16.699Z,23.16
2023-05-21T18:01:41.988Z,23.09
2023-05-21T18:05:07.151Z,23.02
2023-05-21T18:08:32.401Z,22.92
2023-05-21T18:11:58.346Z,22.809999
2023-05-21T18:15:22.924Z,22.700001
2023-05-21T18:18:48.167Z,22.59
2023-05-21T18:22:13.394Z,22.540001
2023-05-21T18:25:39.146Z,22.459999
2023-05-21T18:29:04.408Z,22.43
2023-05-21T18:32:29.741Z,22.34
2023-05-21T18:35:54.920Z,22.26
2023-05-21T18:39:20.113Z,22.17
2023-05-21T18:42:45.341Z,22.1
2023-05-21T18:46:10.590Z,22.030001
2023-05-21T18:49:36.193Z,21.959999
2023-05-21T18:53:01.172Z,21.860001
2023-05-21T18:56:26.348Z,21.799999
2023-05-21T18:59:51.555Z,21.75
2023-05-21T19:03:16.777Z,21.700001
2023-05-21T19:06:42.021Z,21.629999
2023-05-21T19:10:07.261Z,21.59
2023-05-21T19:13:32.468Z,21.540001
2023-05-21T19:16:57.714Z,21.5
2023-05-21T19:20:23.041Z,21.469999
2023-05-21T19:23:53.012Z,21.43
2023-05-21T19:27:13.503Z,21.4
2023-05-21T19:30:38.888Z,21.370001
2023-05-21T19:34:04.040Z,21.34
2023-05-21T19:37:29.234Z,21.309999
2023-05-21T19:40:54.531Z,21.290001
2023-05-21T19:44:19.767Z,21.280001
2023-05-21T19:47:44.969Z,21.209999
2023-05-21T19:51:10.137Z,21.16
2023-05-21T19:54:35.320Z,21.09
2023-05-21T19:58:00.542Z,21.040001
2023-05-21T20:01:25.803Z,20.98
2023-05-21T20:04:50.949Z,20.959999
2023-05-21T20:08:16.165Z,20.950001
2023-05-21T20:11:41.391Z,20.940001
2023-05-21T20:15:06.624Z,20.940001
2023-05-21T20:18:31.816Z,20.93
2023-05-21T20:21:56.965Z,20.93
2023-05-21T20:25:22.195Z,20.92
2023-05-21T20:28:47.341Z,20.879999
2023-05-21T20:32:12.509Z,20.790001
2023-05-21T20:35:37.818Z,20.719999
2023-05-21T20:39:03.017Z,20.610001
2023-05-21T20:42:28.167Z,20.51
2023-05-21T20:45:53.389Z,20.370001
2023-05-21T20:49:18.562Z,20.26
2023-05-21T20:52:44.918Z,20.16
2023-05-21T20:56:08.968Z,20.059999
2023-05-21T20:59:34.157Z,19.969999
2023-05-21T21:02:59.395Z,19.91
2023-05-21T21:06:24.568Z,19.85
2023-05-21T21:09:49.822Z,19.799999
2023-05-21T21:13:15.037Z,19.74
2023-05-21T21:16:40.174Z,19.67
2023-05-21T21:20:05.346Z,19.610001
2023-05-21T21:23:30.581Z,19.559999
2023-05-21T21:26:55.793Z,19.52
2023-05-21T21:30:20.963Z,19.49
2023-05-21T21:33:46.279Z,19.459999
2023-05-21T21:37:11.655Z,19.379999
2023-05-21T21:40:36.660Z,19.35
2023-05-21T21:44:01.776Z,19.35
2023-05-21T21:47:26.961Z,19.35
2023-05-21T21:50:52.148Z,19.360001
2023-05-21T21:54:17.341Z,19.4
2023-05-21T21:57:42.537Z,19.450001
2023-05-21T22:01:07.785Z,19.5
2023-05-21T22:04:32.982Z,19.559999
2023-05-21T22:07:58.128Z,19.65
2023-05-21T22:11:23.305Z,19.73
2023-05-21T22:14:48.511Z,19.799999
2023-05-21T22:18:13.727Z,19.84
2023-05-21T22:21:38.871Z,19.870001
2023-05-21T22:25:04.074Z,19.889999
2023-05-21T22:28:29.305Z,19.889999
2023-05-21T22:31:54.475Z,19.91
2023-05-21T22:35:19.703Z,19.92
2023-05-21T22:38:44.880Z,19.9
2023-05-21T22:42:10.074Z,19.84
2023-05-21T22:45:35.257Z,19.77
2023-05-21T22:49:00.457Z,19.709999
2023-05-21T22:52:25.688Z,19.67
2023-05-21T22:55:50.869Z,19.629999
2023-05-21T22:59:16.067Z,19.559999
2023-05-21T23:02:41.280Z,19.49
2023-05-21T23:06:06.445Z,19.42
2023-05-21T23:09:31.649Z,19.35
2023-05-21T23:12:56.820Z,19.32
2023-05-21T23:16:22.100Z,19.280001
2023-05-21T23:19:47.273Z,19.27
2023-05-21T23:23:12.420Z,19.26
2023-05-21T23:26:37.645Z,19.27
2023-05-21T23:30:02.849Z,19.280001
2023-05-21T23:33:28.032Z,19.280001
2023-05-21T23:36:53.227Z,19.27
2023-05-21T23:40:18.403Z,19.23
2023-05-21T23:43:43.636Z,19.209999
2023-05-21T23:47:08.792Z,19.17
2023-05-21T23:50:33.995Z,19.09
2023-05-21T23:53:59.186Z,19.01
2023-05-21T23:57:24.400Z,18.889999
